Wetterstation Vordersexau
Wetterdaten: Woche 06.03.23 - 12.03.23 (KW10)
Datum Zeit Temp. A. Feuchte A. Luftdruck Regen Wind Richtung Taupunkt Windchill Windben
06.03.2023 00:00 2,4 C 83 % 1006,1 hPa 0,0 l/m 1,1 km/h (1 Bft) N-NO -0,2 C 2,4 C 2,5 km/h (1 Bft)
06.03.2023 01:00 1,6 C 89 % 1005,4 hPa 0,0 l/m 0,0 km/h (0 Bft) N -0,0 C 1,6 C 0,0 km/h (0 Bft)
06.03.2023 02:00 1,9 C 86 % 1005,1 hPa 0,0 l/m 0,0 km/h (0 Bft) N -0,2 C 1,9 C 0,0 km/h (0 Bft)
06.03.2023 03:00 1,8 C 87 % 1004,8 hPa 0,0 l/m 0,0 km/h (0 Bft) N -0,1 C 1,8 C 2,5 km/h (1 Bft)
06.03.2023 04:00 2,1 C 84 % 1004,3 hPa 0,0 l/m 0,0 km/h (0 Bft) N -0,3 C 2,1 C 0,0 km/h (0 Bft)
06.03.2023 05:00 1,9 C 86 % 1004,0 hPa 0,0 l/m 0,0 km/h (0 Bft) N-NO -0,2 C 1,9 C 0,0 km/h (0 Bft)
06.03.2023 06:00 1,8 C 86 % 1003,8 hPa 0,0 l/m 1,1 km/h (1 Bft) N -0,3 C 1,8 C 2,5 km/h (1 Bft)
06.03.2023 07:00 1,6 C 89 % 1003,9 hPa 0,0 l/m 0,0 km/h (0 Bft) N -0,0 C 1,6 C 0,0 km/h (0 Bft)
06.03.2023 08:00 1,9 C 89 % 1004,4 hPa 0,0 l/m 0,0 km/h (0 Bft) O-NO 0,3 C 1,9 C 0,0 km/h (0 Bft)
06.03.2023 09:00 2,4 C 84 % 1004,5 hPa 0,0 l/m 2,5 km/h (1 Bft) S-SW -0,0 C 2,4 C 3,6 km/h (1 Bft)
06.03.2023 10:00 4,4 C 75 % 1004,6 hPa 0,0 l/m 5,0 km/h (1 Bft) S-SW 0,4 C 4,4 C 6,1 km/h (2 Bft)
06.03.2023 11:00 5,5 C 68 % 1004,4 hPa 0,0 l/m 3,6 km/h (1 Bft) W 0,1 C 5,5 C 6,1 km/h (2 Bft)
06.03.2023 12:00 5,8 C 65 % 1004,1 hPa 0,0 l/m 5,0 km/h (1 Bft) W-SW -0,3 C 5,8 C 7,2 km/h (2 Bft)
06.03.2023 13:00 6,0 C 68 % 1003,8 hPa 0,0 l/m 8,6 km/h (2 Bft) W-SW 0,6 C 4,2 C 13,3 km/h (3 Bft)
06.03.2023 14:00 5,4 C 66 % 1003,4 hPa 0,0 l/m 7,2 km/h (2 Bft) W -0,4 C 4,7 C 11,2 km/h (2 Bft)
06.03.2023 15:00 5,9 C 64 % 1003,2 hPa 0,0 l/m 6,1 km/h (2 Bft) N-NW -0,4 C 5,9 C 9,7 km/h (2 Bft)
06.03.2023 16:00 5,5 C 65 % 1003,0 hPa 0,0 l/m 2,5 km/h (1 Bft) N -0,5 C 5,5 C 6,1 km/h (2 Bft)
06.03.2023 17:00 4,8 C 69 % 1003,1 hPa 0,0 l/m 0,0 km/h (0 Bft) N -0,4 C 4,8 C 0,0 km/h (0 Bft)
06.03.2023 18:00 3,8 C 76 % 1003,4 hPa 0,0 l/m 0,0 km/h (0 Bft) N -0,0 C 3,8 C 0,0 km/h (0 Bft)
06.03.2023 19:00 3,1 C 82 % 1003,7 hPa 0,0 l/m 0,0 km/h (0 Bft) N 0,3 C 3,1 C 0,0 km/h (0 Bft)
06.03.2023 20:00 3,6 C 76 % 1004,1 hPa 0,0 l/m 0,0 km/h (0 Bft) N-NO -0,2 C 3,6 C 0,0 km/h (0 Bft)
06.03.2023 21:00 2,8 C 83 % 1003,6 hPa 0,0 l/m 2,5 km/h (1 Bft) N 0,2 C 2,8 C 3,6 km/h (1 Bft)
06.03.2023 22:00 2,9 C 81 % 1003,4 hPa 0,0 l/m 0,0 km/h (0 Bft) W-SW -0,0 C 2,9 C 0,0 km/h (0 Bft)
06.03.2023 23:00 4,0 C 72 % 1003,1 hPa 0,0 l/m 11,2 km/h (2 Bft) W-SW -0,6 C 0,1 C 14,8 km/h (3 Bft)
07.03.2023 00:00 3,7 C 72 % 1003,0 hPa 0,0 l/m 11,2 km/h (2 Bft) W-SW -0,9 C -0,2 C 14,8 km/h (3 Bft)
07.03.2023 01:00 3,6 C 73 % 1003,0 hPa 0,0 l/m 8,6 km/h (2 Bft) W-SW -0,8 C 1,6 C 11,2 km/h (2 Bft)
07.03.2023 02:00 3,7 C 71 % 1002,8 hPa 0,0 l/m 13,3 km/h (3 Bft) W-SW -1,1 C -1,5 C 17,3 km/h (3 Bft)
07.03.2023 03:00 3,3 C 74 % 1002,1 hPa 0,0 l/m 1,1 km/h (1 Bft) S-SW -0,9 C 3,3 C 2,5 km/h (1 Bft)
07.03.2023 04:00 3,6 C 72 % 1001,7 hPa 0,0 l/m 2,5 km/h (1 Bft) SW -1,0 C 3,6 C 3,6 km/h (1 Bft)
07.03.2023 05:00 3,8 C 69 % 1001,4 hPa 0,0 l/m 8,6 km/h (2 Bft) W-SW -1,4 C 1,8 C 11,2 km/h (2 Bft)
07.03.2023 06:00 3,6 C 71 % 1001,0 hPa 0,0 l/m 7,2 km/h (2 Bft) SW -1,2 C 2,9 C 11,2 km/h (2 Bft)
07.03.2023 07:00 3,8 C 70 % 1000,9 hPa 0,0 l/m 8,6 km/h (2 Bft) SW -1,2 C 1,8 C 13,3 km/h (3 Bft)
07.03.2023 08:00 3,9 C 66 % 1000,5 hPa 0,0 l/m 12,2 km/h (2 Bft) W-SW -1,9 C -0,6 C 18,4 km/h (3 Bft)
07.03.2023 09:00 4,1 C 66 % 1000,6 hPa 0,0 l/m 7,2 km/h (2 Bft) S -1,7 C 3,4 C 11,2 km/h (2 Bft)
07.03.2023 10:00 4,5 C 66 % 1000,2 hPa 0,0 l/m 8,6 km/h (2 Bft) W-SW -1,3 C 2,6 C 14,8 km/h (3 Bft)
07.03.2023 11:00 5,4 C 63 % 999,9 hPa 0,0 l/m 8,6 km/h (2 Bft) W -1,1 C 3,5 C 11,2 km/h (2 Bft)
07.03.2023 12:00 6,7 C 55 % 999,4 hPa 0,0 l/m 18,4 km/h (3 Bft) W-NW -1,7 C -0,4 C 20,9 km/h (4 Bft)
07.03.2023 13:00 7,3 C 52 % 998,6 hPa 0,0 l/m 7,2 km/h (2 Bft) W-SW -1,9 C 6,7 C 13,3 km/h (3 Bft)
07.03.2023 14:00 7,1 C 54 % 997,8 hPa 0,0 l/m 11,2 km/h (2 Bft) W-SW -1,6 C 3,6 C 17,3 km/h (3 Bft)
07.03.2023 15:00 7,3 C 57 % 998,0 hPa 0,0 l/m 11,2 km/h (2 Bft) SW -0,6 C 3,9 C 17,3 km/h (3 Bft)
07.03.2023 16:00 6,7 C 58 % 997,9 hPa 0,0 l/m 8,6 km/h (2 Bft) SW -1,0 C 4,9 C 11,2 km/h (2 Bft)
07.03.2023 17:00 6,5 C 56 % 997,9 hPa 0,0 l/m 6,1 km/h (2 Bft) W-SW -1,6 C 6,5 C 11,2 km/h (2 Bft)
07.03.2023 18:00 5,1 C 60 % 999,1 hPa 0,0 l/m 9,7 km/h (2 Bft) W-SW -2,0 C 2,4 C 13,3 km/h (3 Bft)
07.03.2023 19:00 4,3 C 65 % 1000,1 hPa 0,0 l/m 3,6 km/h (1 Bft) SW -1,7 C 4,3 C 6,1 km/h (2 Bft)
07.03.2023 20:00 4,7 C 62 % 1000,4 hPa 0,0 l/m 5,0 km/h (1 Bft) W-SW -1,9 C 4,7 C 6,1 km/h (2 Bft)
07.03.2023 21:00 4,3 C 64 % 1000,9 hPa 0,0 l/m 8,6 km/h (2 Bft) W-SW -1,9 C 2,4 C 18,4 km/h (3 Bft)
07.03.2023 22:00 4,5 C 67 % 1001,5 hPa 0,0 l/m 7,2 km/h (2 Bft) SW -1,1 C 3,8 C 11,2 km/h (2 Bft)
07.03.2023 23:00 4,6 C 67 % 1001,2 hPa 0,0 l/m 12,2 km/h (2 Bft) W -1,0 C 0,2 C 18,4 km/h (3 Bft)
08.03.2023 00:00 4,2 C 68 % 1001,6 hPa 0,0 l/m 6,1 km/h (2 Bft) S-SW -1,2 C 4,2 C 9,7 km/h (2 Bft)
08.03.2023 01:00 3,9 C 70 % 1001,2 hPa 0,0 l/m 6,1 km/h (2 Bft) SO -1,1 C 3,9 C 7,2 km/h (2 Bft)
08.03.2023 02:00 3,9 C 67 % 1000,1 hPa 0,0 l/m 6,1 km/h (2 Bft) S -1,7 C 3,9 C 9,7 km/h (2 Bft)
08.03.2023 03:00 4,2 C 65 % 999,4 hPa 0,0 l/m 6,1 km/h (2 Bft) S -1,8 C 4,2 C 11,2 km/h (2 Bft)
08.03.2023 04:00 3,6 C 70 % 997,8 hPa 0,0 l/m 1,1 km/h (1 Bft) W-SW -1,3 C 3,6 C 2,5 km/h (1 Bft)
08.03.2023 05:00 5,5 C 65 % 997,4 hPa 0,0 l/m 3,6 km/h (1 Bft) SW -0,5 C 5,5 C 6,1 km/h (2 Bft)
08.03.2023 06:00 5,5 C 66 % 996,9 hPa 0,0 l/m 5,0 km/h (1 Bft) S-SW -0,3 C 5,5 C 9,7 km/h (2 Bft)
08.03.2023 07:00 5,6 C 66 % 995,5 hPa 0,0 l/m 5,0 km/h (1 Bft) SO -0,2 C 5,6 C 9,7 km/h (2 Bft)
08.03.2023 08:00 5,0 C 75 % 994,7 hPa 0,0 l/m 3,6 km/h (1 Bft) W 0,9 C 5,0 C 3,6 km/h (1 Bft)
08.03.2023 09:00 6,8 C 73 % 993,9 hPa 0,0 l/m 3,6 km/h (1 Bft) SW 2,3 C 6,8 C 7,2 km/h (2 Bft)
08.03.2023 10:00 8,4 C 72 % 994,0 hPa 0,0 l/m 9,7 km/h (2 Bft) W-SW 3,7 C 6,0 C 13,3 km/h (3 Bft)
08.03.2023 11:00 10,5 C 78 % 994,0 hPa 0,0 l/m 15,8 km/h (3 Bft) W-SW 6,8 C 5,4 C 25,6 km/h (4 Bft)
08.03.2023 12:00 10,5 C 82 % 994,1 hPa 0,0 l/m 14,8 km/h (3 Bft) SW 7,6 C 5,8 C 22,0 km/h (4 Bft)
08.03.2023 13:00 11,8 C 79 % 993,8 hPa 0,0 l/m 19,4 km/h (3 Bft) SW 8,3 C 5,8 C 25,6 km/h (4 Bft)
08.03.2023 14:00 12,4 C 77 % 993,5 hPa 0,0 l/m 19,4 km/h (3 Bft) W-SW 8,5 C 6,6 C 25,6 km/h (4 Bft)
08.03.2023 15:00 13,1 C 75 % 992,8 hPa 0,0 l/m 23,4 km/h (4 Bft) W-SW 8,8 C 6,4 C 35,6 km/h (5 Bft)
08.03.2023 16:00 12,8 C 77 % 992,3 hPa 0,0 l/m 15,8 km/h (3 Bft) SW 8,9 C 8,2 C 22,0 km/h (4 Bft)
08.03.2023 17:00 11,7 C 85 % 992,3 hPa 0,0 l/m 13,3 km/h (3 Bft) S-SW 9,3 C 7,9 C 17,3 km/h (3 Bft)
08.03.2023 18:00 11,1 C 83 % 991,8 hPa 0,3 l/m 15,8 km/h (3 Bft) W-SW 8,3 C 6,2 C 22,0 km/h (4 Bft)
08.03.2023 19:00 11,4 C 87 % 992,3 hPa 0,0 l/m 15,8 km/h (3 Bft) SW 9,3 C 6,5 C 25,6 km/h (4 Bft)
08.03.2023 20:00 11,7 C 87 % 992,2 hPa 0,0 l/m 8,6 km/h (2 Bft) W-SW 9,6 C 10,3 C 14,8 km/h (3 Bft)
08.03.2023 21:00 12,7 C 80 % 992,8 hPa 0,0 l/m 15,8 km/h (3 Bft) SW 9,3 C 8,1 C 20,9 km/h (4 Bft)
08.03.2023 22:00 13,3 C 75 % 992,4 hPa 0,0 l/m 12,2 km/h (2 Bft) W-SW 9,0 C 10,2 C 17,3 km/h (3 Bft)
08.03.2023 23:00 11,6 C 88 % 992,0 hPa 1,5 l/m 11,2 km/h (2 Bft) W-SW 9,7 C 8,7 C 17,3 km/h (3 Bft)
09.03.2023 00:00 13,0 C 78 % 991,4 hPa 0,0 l/m 17,3 km/h (3 Bft) W-SW 9,3 C 8,0 C 25,6 km/h (4 Bft)
09.03.2023 01:00 11,5 C 88 % 992,1 hPa 2,1 l/m 17,3 km/h (3 Bft) SW 9,6 C 6,1 C 22,0 km/h (4 Bft)
09.03.2023 02:00 12,5 C 80 % 992,0 hPa 0,6 l/m 15,8 km/h (3 Bft) W-NW 9,1 C 7,9 C 24,5 km/h (4 Bft)
09.03.2023 03:00 11,0 C 88 % 992,8 hPa 2,4 l/m 19,4 km/h (3 Bft) W-SW 9,1 C 4,8 C 28,1 km/h (4 Bft)
09.03.2023 04:00 9,7 C 87 % 994,8 hPa 0,9 l/m 14,8 km/h (3 Bft) S-SW 7,6 C 4,9 C 20,9 km/h (4 Bft)
09.03.2023 05:00 9,5 C 89 % 995,9 hPa 0,0 l/m 5,0 km/h (1 Bft) S-SW 7,8 C 9,5 C 6,1 km/h (2 Bft)
09.03.2023 06:00 9,8 C 87 % 997,1 hPa 0,0 l/m 7,2 km/h (2 Bft) SW 7,7 C 9,2 C 14,8 km/h (3 Bft)
09.03.2023 07:00 10,5 C 81 % 998,1 hPa 0,0 l/m 13,3 km/h (3 Bft) SW 7,4 C 6,5 C 18,4 km/h (3 Bft)
09.03.2023 08:00 10,0 C 86 % 999,0 hPa 0,0 l/m 14,8 km/h (3 Bft) SW 7,8 C 5,2 C 20,9 km/h (4 Bft)
09.03.2023 09:00 10,4 C 83 % 1000,1 hPa 0,0 l/m 17,3 km/h (3 Bft) SW 7,6 C 4,7 C 25,6 km/h (4 Bft)
09.03.2023 10:00 11,5 C 77 % 1000,9 hPa 0,0 l/m 17,3 km/h (3 Bft) W-SW 7,6 C 6,1 C 29,5 km/h (5 Bft)
09.03.2023 11:00 12,8 C 71 % 1000,8 hPa 0,0 l/m 23,4 km/h (4 Bft) SW 7,7 C 6,0 C 35,6 km/h (5 Bft)
09.03.2023 12:00 13,0 C 72 % 1001,1 hPa 0,0 l/m 20,9 km/h (4 Bft) W-SW 8,1 C 6,9 C 29,5 km/h (5 Bft)
09.03.2023 13:00 12,3 C 74 % 1000,5 hPa 0,0 l/m 23,4 km/h (4 Bft) W-SW 7,8 C 5,3 C 29,5 km/h (5 Bft)
09.03.2023 14:00 13,7 C 72 % 999,9 hPa 0,0 l/m 20,9 km/h (4 Bft) W 8,7 C 7,8 C 28,1 km/h (4 Bft)
09.03.2023 15:00 15,6 C 55 % 999,3 hPa 0,0 l/m 9,7 km/h (2 Bft) W 6,6 C 13,9 C 18,4 km/h (3 Bft)
09.03.2023 16:00 14,3 C 61 % 998,8 hPa 0,0 l/m 6,1 km/h (2 Bft) W-SW 6,9 C 14,3 C 11,2 km/h (2 Bft)
09.03.2023 17:00 13,9 C 64 % 997,6 hPa 0,0 l/m 2,5 km/h (1 Bft) W-SW 7,2 C 13,9 C 3,6 km/h (1 Bft)
09.03.2023 18:00 12,5 C 69 % 997,4 hPa 0,0 l/m 3,6 km/h (1 Bft) W 7,0 C 12,5 C 3,6 km/h (1 Bft)
09.03.2023 19:00 14,0 C 51 % 997,3 hPa 0,0 l/m 15,8 km/h (3 Bft) W-SW 4,0 C 9,7 C 22,0 km/h (4 Bft)
09.03.2023 20:00 12,6 C 59 % 997,1 hPa 0,0 l/m 5,0 km/h (1 Bft) W-SW 4,8 C 12,6 C 7,2 km/h (2 Bft)
09.03.2023 21:00 12,6 C 58 % 996,8 hPa 0,0 l/m 3,6 km/h (1 Bft) W-SW 4,6 C 12,6 C 6,1 km/h (2 Bft)
09.03.2023 22:00 12,7 C 60 % 996,9 hPa 0,0 l/m 9,7 km/h (2 Bft) W-SW 5,1 C 10,7 C 11,2 km/h (2 Bft)
09.03.2023 23:00 11,9 C 70 % 996,1 hPa 0,0 l/m 8,6 km/h (2 Bft) S 6,6 C 10,5 C 11,2 km/h (2 Bft)
10.03.2023 00:00 11,6 C 70 % 994,7 hPa 0,0 l/m 5,0 km/h (1 Bft) S 6,3 C 11,6 C 7,2 km/h (2 Bft)
10.03.2023 01:00 10,2 C 83 % 994,6 hPa 0,0 l/m 12,2 km/h (2 Bft) W-SW 7,4 C 6,6 C 17,3 km/h (3 Bft)
10.03.2023 02:00 10,3 C 85 % 993,8 hPa 0,3 l/m 8,6 km/h (2 Bft) W 7,9 C 8,8 C 13,3 km/h (3 Bft)
10.03.2023 03:00 11,0 C 82 % 993,1 hPa 0,0 l/m 13,3 km/h (3 Bft) S-SW 8,0 C 7,1 C 18,4 km/h (3 Bft)
10.03.2023 04:00 11,1 C 80 % 992,7 hPa 0,0 l/m 13,3 km/h (3 Bft) W-SW 7,8 C 7,2 C 18,4 km/h (3 Bft)
10.03.2023 05:00 10,5 C 82 % 991,7 hPa 0,0 l/m 8,6 km/h (2 Bft) SW 7,6 C 9,0 C 13,3 km/h (3 Bft)
10.03.2023 06:00 10,4 C 81 % 990,8 hPa 0,6 l/m 9,7 km/h (2 Bft) W-SW 7,3 C 8,2 C 13,3 km/h (3 Bft)
10.03.2023 07:00 11,0 C 75 % 990,2 hPa 0,0 l/m 12,2 km/h (2 Bft) SW 6,7 C 7,6 C 17,3 km/h (3 Bft)
10.03.2023 08:00 9,6 C 82 % 991,0 hPa 0,3 l/m 13,3 km/h (3 Bft) W-SW 6,7 C 5,4 C 20,9 km/h (4 Bft)
10.03.2023 09:00 10,1 C 79 % 991,8 hPa 0,0 l/m 15,8 km/h (3 Bft) SW 6,6 C 4,9 C 29,5 km/h (5 Bft)
10.03.2023 10:00 10,2 C 76 % 992,1 hPa 0,0 l/m 23,4 km/h (4 Bft) S-SW 6,2 C 2,5 C 29,5 km/h (5 Bft)
10.03.2023 11:00 10,1 C 77 % 992,5 hPa 0,0 l/m 12,2 km/h (2 Bft) W-SW 6,3 C 6,5 C 18,4 km/h (3 Bft)
10.03.2023 12:00 9,9 C 79 % 993,3 hPa 0,0 l/m 18,4 km/h (3 Bft) SW 6,4 C 3,7 C 25,6 km/h (4 Bft)
10.03.2023 13:00 9,5 C 84 % 993,2 hPa 0,0 l/m 14,8 km/h (3 Bft) SW 6,9 C 4,6 C 20,9 km/h (4 Bft)
10.03.2023 14:00 9,9 C 82 % 993,3 hPa 0,0 l/m 22,0 km/h (4 Bft) W-NW 7,0 C 2,5 C 31,7 km/h (5 Bft)
10.03.2023 15:00 10,2 C 67 % 995,5 hPa 0,0 l/m 29,5 km/h (5 Bft) W-NW 4,4 C 1,0 C 51,5 km/h (7 Bft)
10.03.2023 16:00 8,2 C 83 % 997,0 hPa 0,0 l/m 12,2 km/h (2 Bft) W-SW 5,5 C 4,3 C 18,4 km/h (3 Bft)
10.03.2023 17:00 7,3 C 85 % 997,9 hPa 0,3 l/m 15,8 km/h (3 Bft) W 4,9 C 1,5 C 20,9 km/h (4 Bft)
10.03.2023 18:00 6,4 C 88 % 999,0 hPa 0,9 l/m 8,6 km/h (2 Bft) W-NW 4,6 C 4,6 C 11,2 km/h (2 Bft)
10.03.2023 19:00 6,7 C 86 % 999,3 hPa 0,3 l/m 8,6 km/h (2 Bft) W 4,5 C 4,9 C 17,3 km/h (3 Bft)
10.03.2023 20:00 7,3 C 67 % 1000,8 hPa 0,0 l/m 15,8 km/h (3 Bft) W 1,6 C 1,5 C 22,0 km/h (4 Bft)
10.03.2023 21:00 6,6 C 70 % 1002,2 hPa 0,0 l/m 7,2 km/h (2 Bft) NW 1,5 C 5,9 C 11,2 km/h (2 Bft)
10.03.2023 22:00 5,4 C 74 % 1003,4 hPa 0,0 l/m 5,0 km/h (1 Bft) W-NW 1,1 C 5,4 C 9,7 km/h (2 Bft)
10.03.2023 23:00 4,3 C 79 % 1003,8 hPa 0,0 l/m 3,6 km/h (1 Bft) W-NW 1,0 C 4,3 C 6,1 km/h (2 Bft)
11.03.2023 00:00 3,8 C 82 % 1003,8 hPa 0,0 l/m 3,6 km/h (1 Bft) W-NW 1,0 C 3,8 C 7,2 km/h (2 Bft)
11.03.2023 01:00 3,4 C 82 % 1004,2 hPa 0,0 l/m 2,5 km/h (1 Bft) W 0,6 C 3,4 C 3,6 km/h (1 Bft)
11.03.2023 02:00 2,8 C 81 % 1004,2 hPa 0,0 l/m 3,6 km/h (1 Bft) W-NW -0,1 C 2,8 C 7,2 km/h (2 Bft)
11.03.2023 03:00 2,5 C 80 % 1004,0 hPa 0,0 l/m 1,1 km/h (1 Bft) N -0,6 C 2,5 C 2,5 km/h (1 Bft)
11.03.2023 04:00 2,4 C 79 % 1003,9 hPa 0,0 l/m 0,0 km/h (0 Bft) N-NW -0,9 C 2,4 C 0,0 km/h (0 Bft)
11.03.2023 05:00 1,5 C 82 % 1004,3 hPa 0,0 l/m 2,5 km/h (1 Bft) N -1,2 C 1,5 C 2,5 km/h (1 Bft)
11.03.2023 06:00 1,7 C 79 % 1004,5 hPa 0,0 l/m 0,0 km/h (0 Bft) N -1,5 C 1,7 C 0,0 km/h (0 Bft)
11.03.2023 07:00 1,1 C 80 % 1005,0 hPa 0,0 l/m 0,0 km/h (0 Bft) N -2,0 C 1,1 C 0,0 km/h (0 Bft)
11.03.2023 08:00 1,9 C 77 % 1005,7 hPa 0,0 l/m 1,1 km/h (1 Bft) N -1,7 C 1,9 C 2,5 km/h (1 Bft)
11.03.2023 09:00 3,0 C 73 % 1005,9 hPa 0,0 l/m 1,1 km/h (1 Bft) W -1,4 C 3,0 C 3,6 km/h (1 Bft)
11.03.2023 10:00 4,0 C 65 % 1006,5 hPa 0,0 l/m 1,1 km/h (1 Bft) S-SW -2,0 C 4,0 C 3,6 km/h (1 Bft)
11.03.2023 11:00 5,0 C 59 % 1006,5 hPa 0,0 l/m 2,5 km/h (1 Bft) W -2,3 C 5,0 C 3,6 km/h (1 Bft)
11.03.2023 12:00 5,4 C 57 % 1006,2 hPa 0,0 l/m 6,1 km/h (2 Bft) W -2,4 C 5,4 C 7,2 km/h (2 Bft)
11.03.2023 13:00 6,2 C 50 % 1006,1 hPa 0,0 l/m 6,1 km/h (2 Bft) W -3,4 C 6,2 C 9,7 km/h (2 Bft)
11.03.2023 14:00 8,2 C 49 % 1005,7 hPa 0,0 l/m 3,6 km/h (1 Bft) N -1,9 C 8,2 C 7,2 km/h (2 Bft)
11.03.2023 15:00 7,5 C 43 % 1006,0 hPa 0,0 l/m 3,6 km/h (1 Bft) N-NW -4,3 C 7,5 C 6,1 km/h (2 Bft)
11.03.2023 16:00 6,9 C 45 % 1006,4 hPa 0,0 l/m 2,5 km/h (1 Bft) W -4,2 C 6,9 C 3,6 km/h (1 Bft)
11.03.2023 17:00 6,0 C 54 % 1006,5 hPa 0,0 l/m 2,5 km/h (1 Bft) N -2,6 C 6,0 C 3,6 km/h (1 Bft)
11.03.2023 18:00 5,7 C 52 % 1007,0 hPa 0,0 l/m 0,0 km/h (0 Bft) N -3,4 C 5,7 C 2,5 km/h (1 Bft)
11.03.2023 19:00 4,7 C 63 % 1007,6 hPa 0,0 l/m 0,0 km/h (0 Bft) N -1,7 C 4,7 C 0,0 km/h (0 Bft)
11.03.2023 20:00 3,2 C 70 % 1008,2 hPa 0,0 l/m 0,0 km/h (0 Bft) NW -1,7 C 3,2 C 0,0 km/h (0 Bft)
11.03.2023 21:00 2,1 C 72 % 1008,9 hPa 0,0 l/m 1,1 km/h (1 Bft) N -2,4 C 2,1 C 2,5 km/h (1 Bft)
11.03.2023 22:00 1,1 C 79 % 1009,1 hPa 0,0 l/m 0,0 km/h (0 Bft) N -2,1 C 1,1 C 2,5 km/h (1 Bft)
11.03.2023 23:00 0,8 C 80 % 1009,5 hPa 0,0 l/m 0,0 km/h (0 Bft) N -2,2 C 0,8 C 0,0 km/h (0 Bft)
12.03.2023 00:00 0,6 C 82 % 1009,7 hPa 0,0 l/m 0,0 km/h (0 Bft) NW -2,1 C 0,6 C 2,5 km/h (1 Bft)
12.03.2023 01:00 0,8 C 83 % 1009,4 hPa 0,0 l/m 1,1 km/h (1 Bft) S-SO -1,8 C 0,8 C 2,5 km/h (1 Bft)
12.03.2023 02:00 1,0 C 84 % 1009,7 hPa 0,0 l/m 1,1 km/h (1 Bft) N -1,4 C 1,0 C 2,5 km/h (1 Bft)
12.03.2023 03:00 1,9 C 86 % 1009,4 hPa 0,0 l/m 0,0 km/h (0 Bft) S-SO -0,2 C 1,9 C 2,5 km/h (1 Bft)
12.03.2023 04:00 2,5 C 88 % 1008,7 hPa 0,0 l/m 1,1 km/h (1 Bft) S 0,7 C 2,5 C 2,5 km/h (1 Bft)
12.03.2023 05:00 5,8 C 89 % 1008,5 hPa 0,0 l/m 2,5 km/h (1 Bft) SW 4,1 C 5,8 C 3,6 km/h (1 Bft)
12.03.2023 06:00 7,2 C 89 % 1008,6 hPa 0,0 l/m 6,1 km/h (2 Bft) W 5,5 C 7,2 C 9,7 km/h (2 Bft)
12.03.2023 07:00 7,5 C 89 % 1008,8 hPa 0,0 l/m 9,7 km/h (2 Bft) W-SW 5,8 C 5,0 C 14,8 km/h (3 Bft)
12.03.2023 08:00 8,2 C 88 % 1009,5 hPa 0,0 l/m 12,2 km/h (2 Bft) W 6,3 C 4,3 C 17,3 km/h (3 Bft)
12.03.2023 09:00 8,9 C 88 % 1009,8 hPa 0,0 l/m 8,6 km/h (2 Bft) W 7,0 C 7,3 C 13,3 km/h (3 Bft)
12.03.2023 10:00 10,0 C 88 % 1010,1 hPa 0,0 l/m 8,6 km/h (2 Bft) W-SW 8,1 C 8,5 C 11,2 km/h (2 Bft)
12.03.2023 11:00 10,6 C 86 % 1010,7 hPa 0,0 l/m 11,2 km/h (2 Bft) W-SW 8,4 C 7,6 C 13,3 km/h (3 Bft)
12.03.2023 12:00 11,9 C 77 % 1010,6 hPa 0,0 l/m 8,6 km/h (2 Bft) W-SW 8,0 C 10,5 C 13,3 km/h (3 Bft)
12.03.2023 13:00 13,4 C 76 % 1010,4 hPa 0,0 l/m 12,2 km/h (2 Bft) W 9,3 C 10,3 C 17,3 km/h (3 Bft)
12.03.2023 14:00 13,2 C 65 % 1010,4 hPa 0,0 l/m 7,2 km/h (2 Bft) W 6,8 C 12,7 C 11,2 km/h (2 Bft)
12.03.2023 15:00 13,2 C 63 % 1010,2 hPa 0,0 l/m 11,2 km/h (2 Bft) W-SW 6,3 C 10,6 C 14,8 km/h (3 Bft)
12.03.2023 16:00 13,5 C 61 % 1010,4 hPa 0,0 l/m 12,2 km/h (2 Bft) W-SW 6,1 C 10,5 C 18,4 km/h (3 Bft)
12.03.2023 17:00 13,1 C 64 % 1010,2 hPa 0,0 l/m 8,6 km/h (2 Bft) N 6,4 C 11,8 C 11,2 km/h (2 Bft)
Min-Datum _ 12.03.23 11.03.23 10.03.23 - 06.03.23 - 11.03.23 07.03.23 06.03.23
_ Min-Zeit 00:37 15:37 07:37 - 01:37 - 15:37 02:37 01:37
Minimum _ 0,6 C 43 % 990,2 hPa - 0,0 km/h (0 Bft) - -4,3 C -1,5 C 0,0 km/h (0 Bft)
Max-Datum _ 09.03.23 06.03.23 12.03.23 09.03.23 10.03.23 - 08.03.23 09.03.23 10.03.23
_ Max-Zeit 15:37 01:37 11:37 03:37 15:37 - 23:37 16:37 15:37
Maximum _ 15,6 C 89 % 1010,7 hPa 2,4 l/m 29,5 km/h
W-NW (5 Bft)
- 9,7 C 14,3 C 51,5 km/h
W-NW (7 Bft)
Durchschnitt _ 7,1 C 74 % 1000,8 hPa #10,5 l/m 8,1 km/h (2 Bft) W-SW 2,6 C 5,2 C 12,1 km/h (2 Bft)
www.sexauwetter.de